Time;durP1;ratioP1;P1;durP2;ratioP2;P2;SDS_P1;SDS_P2;PMS_P1;PMS_P2;Temp;Humidity;BMP_temperature;BMP_pressure;BME280_temperature;BME280_humidity;BME280_pressure;Samples;Min_cycle;Max_cycle;Signal;HPM_P1;HPM_P2
2021/08/03 00:01:41;;;;;;;;;;;15.30;86.80;;;;;;5032707;28;19924;-70
2021/08/03 00:04:07;;;;;;;;;;;15.30;86.80;;;;;;5033306;28;20000;-70
2021/08/03 00:06:34;;;;;;;;;;;15.30;86.70;;;;;;5034351;28;20401;-71
2021/08/03 00:09:00;;;;;;;;;;;15.30;86.50;;;;;;5034701;28;20056;-70
2021/08/03 00:11:26;;;;;;;;;;;15.30;86.50;;;;;;5033316;28;19941;-70
2021/08/03 00:13:52;;;;;;;;;;;15.30;86.60;;;;;;5031430;28;20012;-71
2021/08/03 00:16:18;;;;;;;;;;;15.30;86.90;;;;;;5035371;28;20349;-71
2021/08/03 00:18:44;;;;;;;;;;;15.30;86.90;;;;;;5035050;28;19959;-71
2021/08/03 00:21:13;;;;;;;;;;;15.30;86.90;;;;;;5034537;28;19918;-71
2021/08/03 00:23:43;;;;;;;;;;;15.20;86.70;;;;;;5035524;28;20001;-71
2021/08/03 00:26:10;;;;;;;;;;;15.30;87.30;;;;;;5033709;28;19971;-70
2021/08/03 00:28:36;;;;;;;;;;;15.20;86.80;;;;;;5032216;28;19920;-70
2021/08/03 00:31:01;;;;;;;;;;;15.20;87.00;;;;;;5032555;28;20005;-70
2021/08/03 00:33:27;;;;;;;;;;;15.20;87.00;;;;;;5032111;28;19957;-70
2021/08/03 00:35:53;;;;;;;;;;;15.20;86.90;;;;;;5031290;28;19914;-69
2021/08/03 00:38:18;;;;;;;;;;;15.20;86.90;;;;;;5030694;28;19917;-71
2021/08/03 00:40:51;;;;;;;;;;;15.20;87.10;;;;;;5030474;28;19914;-69
2021/08/03 00:43:16;;;;;;;;;;;15.20;87.20;;;;;;5031998;28;20384;-69
2021/08/03 00:45:42;;;;;;;;;;;15.20;87.30;;;;;;5030507;28;20016;-70
2021/08/03 00:48:09;;;;;;;;;;;15.20;87.40;;;;;;5030461;28;19921;-69
2021/08/03 00:50:35;;;;;;;;;;;15.20;87.50;;;;;;5037176;23;20354;-61
2021/08/03 00:53:02;;;;;;;;;;;15.20;87.50;;;;;;4991915;28;19918;-61
2021/08/03 00:55:28;;;;;;;;;;;15.20;87.60;;;;;;5007212;28;19925;-61
2021/08/03 00:57:56;;;;;;;;;;;15.20;87.60;;;;;;4974414;28;19925;-62
2021/08/03 01:00:24;;;;;;;;;;;15.20;87.50;;;;;;4990655;28;20008;-61
2021/08/03 01:02:51;;;;;;;;;;;15.20;87.60;;;;;;5007203;28;19917;-62
2021/08/03 01:05:16;;;;;;;;;;;15.20;87.60;;;;;;4971779;28;19926;-61
2021/08/03 01:07:47;;;;;;;;;;;15.20;87.70;;;;;;4972550;28;19918;-61
2021/08/03 01:10:19;;;;;;;;;;;15.20;87.80;;;;;;4970943;28;19922;-62
2021/08/03 01:13:01;;;;;;;;;;;15.20;88.00;;;;;;4971322;28;19926;-62
2021/08/03 01:15:32;;;;;;;;;;;15.20;88.00;;;;;;4971173;28;20017;-61
2021/08/03 01:18:14;;;;;;;;;;;15.20;88.00;;;;;;4971218;28;19918;-61
2021/08/03 01:20:59;;;;;;;;;;;15.20;88.10;;;;;;4970882;28;19992;-61
2021/08/03 01:23:35;;;;;;;;;;;15.20;88.10;;;;;;4972539;28;20021;-61
2021/08/03 01:26:07;;;;;;;;;;;15.20;88.10;;;;;;4990606;28;19925;-61
2021/08/03 01:28:39;;;;;;;;;;;15.20;88.20;;;;;;5006644;28;20416;-61
2021/08/03 01:31:10;;;;;;;;;;;15.20;88.20;;;;;;4991392;28;19922;-61
2021/08/03 01:33:41;;;;;;;;;;;15.20;88.20;;;;;;4992149;28;19965;-61
2021/08/03 01:36:07;;;;;;;;;;;15.10;88.40;;;;;;5006452;28;20370;-61
2021/08/03 01:38:34;;;;;;;;;;;15.20;88.50;;;;;;4990285;28;20333;-61
2021/08/03 01:41:02;;;;;;;;;;;15.20;88.50;;;;;;5006894;28;19918;-62
2021/08/03 01:43:28;;;;;;;;;;;15.20;88.50;;;;;;4991442;28;20001;-61
2021/08/03 01:45:56;;;;;;;;;;;15.20;88.50;;;;;;5006670;28;19969;-61
2021/08/03 01:48:24;;;;;;;;;;;15.20;88.50;;;;;;4989571;28;19948;-61
2021/08/03 01:50:52;;;;;;;;;;;15.20;88.60;;;;;;4990281;28;19953;-61
2021/08/03 01:53:19;;;;;;;;;;;15.20;88.60;;;;;;4991630;28;19918;-61
2021/08/03 01:55:45;;;;;;;;;;;15.20;88.50;;;;;;4973899;28;19925;-61
2021/08/03 01:58:19;;;;;;;;;;;15.20;88.50;;;;;;5006490;28;19918;-61
2021/08/03 02:00:56;;;;;;;;;;;15.10;88.60;;;;;;4971851;28;19918;-61
2021/08/03 02:03:24;;;;;;;;;;;15.20;88.70;;;;;;4970863;28;19929;-61
2021/08/03 02:06:00;;;;;;;;;;;15.20;88.80;;;;;;4970659;28;20246;-61
2021/08/03 02:08:29;;;;;;;;;;;15.20;88.90;;;;;;4970591;28;20390;-61
2021/08/03 02:11:07;;;;;;;;;;;15.20;88.80;;;;;;4971968;28;19945;-61
2021/08/03 02:13:34;;;;;;;;;;;15.20;88.80;;;;;;4975667;28;19924;-62
2021/08/03 02:16:00;;;;;;;;;;;15.20;88.90;;;;;;4975217;28;20001;-62
2021/08/03 02:18:27;;;;;;;;;;;15.20;88.90;;;;;;4973984;28;19914;-61
2021/08/03 02:20:55;;;;;;;;;;;15.20;89.00;;;;;;4975582;28;19918;-61
2021/08/03 02:23:27;;;;;;;;;;;15.10;89.00;;;;;;4973698;28;19929;-61
2021/08/03 02:25:58;;;;;;;;;;;15.10;89.00;;;;;;4974083;28;19918;-61
2021/08/03 02:28:25;;;;;;;;;;;15.10;89.00;;;;;;4973404;28;19918;-61
2021/08/03 02:30:52;;;;;;;;;;;15.10;89.20;;;;;;4974034;28;20294;-61
2021/08/03 02:33:24;;;;;;;;;;;15.10;89.10;;;;;;4974135;28;20418;-61
2021/08/03 02:35:55;;;;;;;;;;;15.10;89.10;;;;;;4973565;28;19925;-61
2021/08/03 02:38:24;;;;;;;;;;;15.10;89.20;;;;;;4974979;28;20310;-61
2021/08/03 02:40:51;;;;;;;;;;;15.10;89.20;;;;;;4973477;28;20428;-62
2021/08/03 02:43:22;;;;;;;;;;;15.10;89.20;;;;;;4989531;28;20385;-61
2021/08/03 02:45:51;;;;;;;;;;;15.10;89.20;;;;;;4973471;28;20309;-62
2021/08/03 02:48:19;;;;;;;;;;;15.10;89.20;;;;;;4974872;28;19925;-61
2021/08/03 02:50:45;;;;;;;;;;;15.10;89.30;;;;;;4974813;28;19922;-61
2021/08/03 02:53:20;;;;;;;;;;;15.10;89.30;;;;;;4973334;28;19925;-61
2021/08/03 02:55:50;;;;;;;;;;;15.10;89.30;;;;;;4973584;28;20334;-61
2021/08/03 02:58:21;;;;;;;;;;;15.10;89.30;;;;;;4974188;28;20290;-61
2021/08/03 03:00:49;;;;;;;;;;;15.00;89.30;;;;;;4973467;28;20295;-61
2021/08/03 03:03:17;;;;;;;;;;;15.10;89.30;;;;;;4974277;28;20297;-61
2021/08/03 03:05:46;;;;;;;;;;;15.00;89.30;;;;;;4973497;28;20386;-61
2021/08/03 03:08:15;;;;;;;;;;;15.00;89.10;;;;;;4973098;28;19922;-61
2021/08/03 03:10:48;;;;;;;;;;;14.90;88.90;;;;;;4992438;28;19918;-61
2021/08/03 03:13:32;;;;;;;;;;;14.80;89.00;;;;;;5009025;28;19964;-61
2021/08/03 03:15:58;;;;;;;;;;;14.80;89.30;;;;;;4993602;28;19918;-61
2021/08/03 03:18:24;;;;;;;;;;;14.80;89.40;;;;;;4993580;28;19918;-61
2021/08/03 03:20:50;;;;;;;;;;;14.70;89.60;;;;;;4991984;28;20378;-61
2021/08/03 03:23:17;;;;;;;;;;;14.70;89.60;;;;;;5008739;28;19921;-61
2021/08/03 03:25:44;;;;;;;;;;;14.70;89.60;;;;;;5008766;28;19922;-61
2021/08/03 03:28:11;;;;;;;;;;;14.70;89.70;;;;;;5008114;28;20374;-61
2021/08/03 03:30:37;;;;;;;;;;;14.70;89.70;;;;;;4993700;28;20370;-61
2021/08/03 03:33:05;;;;;;;;;;;14.70;89.80;;;;;;5008303;28;19941;-62
2021/08/03 03:35:35;;;;;;;;;;;14.70;89.80;;;;;;4993573;28;19956;-61
2021/08/03 03:38:03;;;;;;;;;;;14.70;89.70;;;;;;4992899;28;20409;-62
2021/08/03 03:40:28;;;;;;;;;;;14.60;89.50;;;;;;4992202;28;19917;-61
2021/08/03 03:42:56;;;;;;;;;;;14.60;89.40;;;;;;4993389;28;19957;-61
2021/08/03 03:45:22;;;;;;;;;;;14.50;89.40;;;;;;4993018;28;20012;-62
2021/08/03 03:47:59;;;;;;;;;;;14.40;89.60;;;;;;5008140;28;19918;-61
2021/08/03 03:50:29;;;;;;;;;;;14.40;90.00;;;;;;4991550;28;19929;-61
2021/08/03 03:52:59;;;;;;;;;;;14.40;90.10;;;;;;4991920;28;19946;-61
2021/08/03 03:55:25;;;;;;;;;;;14.50;90.40;;;;;;4993060;28;19917;-61
2021/08/03 03:57:51;;;;;;;;;;;14.50;90.20;;;;;;4992570;28;19932;-61
2021/08/03 04:00:18;;;;;;;;;;;14.60;90.20;;;;;;5007939;28;19918;-61
2021/08/03 04:02:44;;;;;;;;;;;14.60;90.20;;;;;;4993038;28;19924;-61
2021/08/03 04:05:12;;;;;;;;;;;14.70;90.30;;;;;;5007940;28;20359;-61
2021/08/03 04:07:39;;;;;;;;;;;14.70;90.30;;;;;;4992709;28;20496;-61
2021/08/03 04:10:07;;;;;;;;;;;14.70;90.30;;;;;;4992300;28;19924;-61
2021/08/03 04:12:34;;;;;;;;;;;14.80;90.30;;;;;;5008044;28;19968;-61
2021/08/03 04:15:01;;;;;;;;;;;14.80;90.20;;;;;;4975460;28;20375;-61
2021/08/03 04:17:27;;;;;;;;;;;14.80;90.20;;;;;;4972811;28;19922;-61
2021/08/03 04:19:53;;;;;;;;;;;14.90;90.20;;;;;;4956008;28;19918;-61
2021/08/03 04:22:18;;;;;;;;;;;14.90;90.20;;;;;;4971585;28;19968;-61
2021/08/03 04:24:44;;;;;;;;;;;14.80;90.10;;;;;;4972925;28;19926;-61
2021/08/03 04:27:10;;;;;;;;;;;14.90;90.20;;;;;;4971886;28;19921;-61
2021/08/03 04:29:35;;;;;;;;;;;14.80;90.50;;;;;;4987737;28;20371;-61
2021/08/03 04:32:01;;;;;;;;;;;14.90;90.30;;;;;;4971768;28;19918;-61
2021/08/03 04:34:27;;;;;;;;;;;15.00;90.30;;;;;;4972853;28;19918;-61
2021/08/03 04:36:52;;;;;;;;;;;15.00;90.20;;;;;;4972553;28;19925;-62
2021/08/03 04:39:18;;;;;;;;;;;14.90;90.10;;;;;;4971784;28;19918;-61
2021/08/03 04:41:43;;;;;;;;;;;14.90;90.00;;;;;;4971259;28;19922;-61
2021/08/03 04:44:09;;;;;;;;;;;14.90;90.00;;;;;;4971631;28;19926;-65
2021/08/03 04:46:35;;;;;;;;;;;14.80;90.00;;;;;;4971640;28;19988;-64
2021/08/03 04:49:00;;;;;;;;;;;14.70;90.20;;;;;;4972590;28;20020;-64
2021/08/03 04:51:26;;;;;;;;;;;14.70;90.40;;;;;;4972788;28;19958;-65
2021/08/03 04:53:52;;;;;;;;;;;14.70;90.30;;;;;;4973137;28;19993;-64
2021/08/03 04:56:17;;;;;;;;;;;14.70;90.30;;;;;;4971135;28;19921;-64
2021/08/03 04:58:43;;;;;;;;;;;14.70;90.30;;;;;;4972624;28;19918;-64
2021/08/03 05:01:08;;;;;;;;;;;14.70;90.30;;;;;;4970966;28;19930;-64
2021/08/03 05:03:34;;;;;;;;;;;14.60;90.30;;;;;;4971401;28;19930;-64
2021/08/03 05:05:59;;;;;;;;;;;14.70;90.50;;;;;;4971563;28;19925;-64
2021/08/03 05:08:25;;;;;;;;;;;14.80;90.50;;;;;;4970713;28;20331;-64
2021/08/03 05:10:51;;;;;;;;;;;14.80;90.40;;;;;;4971167;28;20364;-64
2021/08/03 05:13:16;;;;;;;;;;;14.80;90.40;;;;;;4972316;28;19918;-63
2021/08/03 05:15:42;;;;;;;;;;;14.80;90.50;;;;;;4971372;28;20068;-64
2021/08/03 05:18:07;;;;;;;;;;;15.80;90.80;;;;;;4972394;28;19922;-68
2021/08/03 05:20:33;;;;;;;;;;;14.90;90.60;;;;;;4987048;28;20009;-64
2021/08/03 05:22:58;;;;;;;;;;;14.90;90.40;;;;;;4970954;28;19918;-64
2021/08/03 05:25:24;;;;;;;;;;;15.00;90.50;;;;;;4972465;28;19924;-65
2021/08/03 05:27:50;;;;;;;;;;;15.00;90.60;;;;;;4970689;28;20045;-66
2021/08/03 05:30:15;;;;;;;;;;;15.10;90.60;;;;;;4971119;28;19918;-65
2021/08/03 05:32:41;;;;;;;;;;;15.10;90.60;;;;;;4972546;28;20287;-64
2021/08/03 05:35:07;;;;;;;;;;;15.20;90.60;;;;;;4986940;28;20473;-64
2021/08/03 05:37:33;;;;;;;;;;;15.30;90.70;;;;;;4972001;28;19922;-64
2021/08/03 05:39:59;;;;;;;;;;;15.40;90.70;;;;;;4971106;28;19924;-65
2021/08/03 05:42:25;;;;;;;;;;;15.50;90.60;;;;;;4980142;28;19922;-65
2021/08/03 05:44:50;;;;;;;;;;;15.50;90.20;;;;;;4972324;28;19922;-65
2021/08/03 05:47:16;;;;;;;;;;;15.50;90.00;;;;;;4975052;28;20295;-64
2021/08/03 05:49:42;;;;;;;;;;;15.50;90.20;;;;;;4975915;28;19962;-64
2021/08/03 05:52:08;;;;;;;;;;;15.60;90.30;;;;;;4974438;28;20279;-64
2021/08/03 05:54:33;;;;;;;;;;;15.80;90.40;;;;;;4974249;28;19918;-65
2021/08/03 05:56:59;;;;;;;;;;;16.00;90.60;;;;;;4975717;28;19925;-65
2021/08/03 05:59:24;;;;;;;;;;;16.20;90.40;;;;;;4975829;28;19918;-64
2021/08/03 06:01:50;;;;;;;;;;;16.40;90.50;;;;;;4974246;28;19919;-64
2021/08/03 06:04:15;;;;;;;;;;;16.60;90.00;;;;;;4990692;28;19953;-64
2021/08/03 06:06:42;;;;;;;;;;;16.60;89.60;;;;;;4975491;28;19922;-66
2021/08/03 06:09:11;;;;;;;;;;;16.70;89.30;;;;;;4974045;28;20012;-65
2021/08/03 06:11:47;;;;;;;;;;;16.70;89.20;;;;;;4975683;28;19997;-65
2021/08/03 06:14:15;;;;;;;;;;;16.80;89.40;;;;;;4994754;28;19917;-65
2021/08/03 06:16:41;;;;;;;;;;;16.90;89.00;;;;;;4994895;28;19913;-65
2021/08/03 06:19:08;;;;;;;;;;;17.10;89.20;;;;;;4994496;28;19918;-65
2021/08/03 06:21:34;;;;;;;;;;;17.20;88.80;;;;;;4994771;28;19928;-65
2021/08/03 06:24:00;;;;;;;;;;;17.30;88.60;;;;;;4993118;28;20008;-65
2021/08/03 06:26:25;;;;;;;;;;;17.40;87.90;;;;;;4994488;28;20145;-65
2021/08/03 06:28:52;;;;;;;;;;;17.50;87.70;;;;;;4994148;28;19917;-66
2021/08/03 06:31:18;;;;;;;;;;;17.60;87.70;;;;;;4994353;28;20310;-65
2021/08/03 06:33:46;;;;;;;;;;;17.70;87.50;;;;;;4994509;28;19918;-65
2021/08/03 06:36:12;;;;;;;;;;;17.80;87.20;;;;;;4994216;28;19918;-65
2021/08/03 06:38:38;;;;;;;;;;;17.90;86.90;;;;;;4993599;28;19917;-66
2021/08/03 06:41:07;;;;;;;;;;;18.00;86.50;;;;;;4994224;28;19917;-66
2021/08/03 06:43:35;;;;;;;;;;;18.20;87.00;;;;;;4994314;28;19992;-66
2021/08/03 06:46:02;;;;;;;;;;;18.40;87.00;;;;;;4994125;28;19928;-65
2021/08/03 06:48:30;;;;;;;;;;;18.90;87.60;;;;;;5009022;28;19926;-66
2021/08/03 06:51:09;;;;;;;;;;;19.40;87.70;;;;;;4994113;28;20473;-61
2021/08/03 06:53:36;;;;;;;;;;;19.90;87.10;;;;;;4994458;28;20004;-61
2021/08/03 06:56:02;;;;;;;;;;;20.20;85.60;;;;;;4993742;28;20039;-61
2021/08/03 06:58:34;;;;;;;;;;;20.40;83.90;;;;;;4993993;28;19918;-61
2021/08/03 07:01:01;;;;;;;;;;;20.30;82.70;;;;;;4993962;28;19918;-61
2021/08/03 07:03:31;;;;;;;;;;;20.40;82.50;;;;;;4993582;28;19929;-61
2021/08/03 07:05:57;;;;;;;;;;;20.60;83.20;;;;;;5009110;28;19917;-61
2021/08/03 07:08:23;;;;;;;;;;;21.10;84.10;;;;;;4992142;28;20005;-61
2021/08/03 07:10:50;;;;;;;;;;;21.60;82.60;;;;;;4993954;28;19957;-61
2021/08/03 07:13:16;;;;;;;;;;;21.90;81.30;;;;;;4993900;28;19918;-61
2021/08/03 07:15:43;;;;;;;;;;;22.40;81.10;;;;;;4993279;28;20275;-61
2021/08/03 07:18:10;;;;;;;;;;;23.20;81.90;;;;;;4992080;28;19929;-61
2021/08/03 07:20:39;;;;;;;;;;;24.00;80.00;;;;;;4993638;28;19972;-61
2021/08/03 07:23:04;;;;;;;;;;;24.60;77.90;;;;;;4993708;28;20441;-61
2021/08/03 07:25:32;;;;;;;;;;;25.70;77.70;;;;;;4993751;28;19921;-62
2021/08/03 07:27:58;;;;;;;;;;;26.80;76.20;;;;;;5007874;28;19918;-63
2021/08/03 07:30:23;;;;;;;;;;;28.80;76.80;;;;;;4993658;28;19945;-62
2021/08/03 07:32:49;;;;;;;;;;;30.90;72.60;;;;;;4993131;28;20298;-63
2021/08/03 07:35:14;;;;;;;;;;;33.00;68.30;;;;;;4993752;28;19918;-62
2021/08/03 07:37:40;;;;;;;;;;;33.70;59.70;;;;;;4993238;28;19918;-63
2021/08/03 07:40:06;;;;;;;;;;;32.60;53.70;;;;;;4992874;28;19972;-62
2021/08/03 07:42:32;;;;;;;;;;;31.40;53.30;;;;;;5008222;28;19918;-62
2021/08/03 07:44:57;;;;;;;;;;;30.40;52.10;;;;;;4992059;28;20421;-62
2021/08/03 07:47:23;;;;;;;;;;;29.50;52.00;;;;;;4992711;28;19931;-62
2021/08/03 07:49:51;;;;;;;;;;;29.10;53.10;;;;;;4993115;28;20323;-62
2021/08/03 07:52:17;;;;;;;;;;;30.20;56.20;;;;;;4993103;28;19929;-62
2021/08/03 07:54:43;;;;;;;;;;;31.40;52.50;;;;;;4992703;28;20009;-62
2021/08/03 07:57:09;;;;;;;;;;;31.80;50.40;;;;;;4992700;28;20012;-63
2021/08/03 07:59:34;;;;;;;;;;;32.10;48.60;;;;;;4992764;28;19917;-63
2021/08/03 08:02:00;;;;;;;;;;;31.80;46.90;;;;;;4992713;28;20392;-63
2021/08/03 08:04:26;;;;;;;;;;;31.20;45.80;;;;;;4992849;28;19922;-63
2021/08/03 08:06:51;;;;;;;;;;;31.10;47.00;;;;;;4992055;28;19922;-63
2021/08/03 08:09:17;;;;;;;;;;;31.30;47.40;;;;;;4992309;28;20301;-62
2021/08/03 08:11:43;;;;;;;;;;;31.80;47.20;;;;;;4992691;28;20240;-62
2021/08/03 08:14:08;;;;;;;;;;;32.20;46.30;;;;;;4992427;28;19918;-62
2021/08/03 08:16:34;;;;;;;;;;;32.40;44.80;;;;;;4992596;28;19945;-62
2021/08/03 08:18:59;;;;;;;;;;;32.60;44.20;;;;;;4992616;28;20004;-63
2021/08/03 08:21:28;;;;;;;;;;;32.20;42.20;;;;;;4992208;28;20397;-63
2021/08/03 08:23:54;;;;;;;;;;;32.90;44.90;;;;;;4992312;28;19926;-63
2021/08/03 08:26:20;;;;;;;;;;;34.20;43.60;;;;;;4990503;28;20384;-62
2021/08/03 08:28:45;;;;;;;;;;;34.60;41.40;;;;;;4992060;28;19917;-63
2021/08/03 08:31:11;;;;;;;;;;;34.60;39.90;;;;;;4992326;28;20293;-63
2021/08/03 08:33:36;;;;;;;;;;;34.40;39.50;;;;;;4992233;28;19933;-63
2021/08/03 08:36:02;;;;;;;;;;;34.20;39.60;;;;;;4992519;28;19949;-63
2021/08/03 08:38:28;;;;;;;;;;;34.10;39.30;;;;;;4991850;28;19977;-62
2021/08/03 08:40:54;;;;;;;;;;;33.70;38.60;;;;;;4992205;28;19918;-63
2021/08/03 08:43:19;;;;;;;;;;;32.90;37.70;;;;;;4990811;28;20341;-62
2021/08/03 08:45:45;;;;;;;;;;;31.70;37.40;;;;;;4990644;28;19930;-62
2021/08/03 08:48:11;;;;;;;;;;;30.20;37.60;;;;;;4992110;28;19925;-62
2021/08/03 08:50:37;;;;;;;;;;;28.70;38.70;;;;;;5007044;28;20378;-62
2021/08/03 08:53:03;;;;;;;;;;;27.50;40.80;;;;;;5006907;28;19942;-62
2021/08/03 08:55:29;;;;;;;;;;;26.50;41.80;;;;;;4992196;28;20016;-61
2021/08/03 08:57:54;;;;;;;;;;;25.80;43.10;;;;;;5006507;28;20390;-61
2021/08/03 09:00:21;;;;;;;;;;;25.20;43.60;;;;;;4992181;28;19925;-61
2021/08/03 09:02:49;;;;;;;;;;;24.60;44.50;;;;;;4992117;28;19914;-60
2021/08/03 09:05:15;;;;;;;;;;;24.10;45.60;;;;;;4991769;28;19926;-60
2021/08/03 09:07:54;;;;;;;;;;;23.60;46.60;;;;;;4990555;28;19918;-60
2021/08/03 09:10:32;;;;;;;;;;;23.10;47.20;;;;;;4991212;28;19924;-62
2021/08/03 09:13:02;;;;;;;;;;;22.40;48.10;;;;;;4991961;28;20363;-60
2021/08/03 09:15:28;;;;;;;;;;;21.90;49.50;;;;;;4990442;28;20013;-61
2021/08/03 09:18:07;;;;;;;;;;;21.60;50.90;;;;;;4991365;28;20408;-60
2021/08/03 09:20:36;;;;;;;;;;;21.40;51.80;;;;;;4992549;28;19917;-64
2021/08/03 09:23:01;;;;;;;;;;;21.30;52.90;;;;;;4994417;28;20064;-63
2021/08/03 09:25:27;;;;;;;;;;;21.40;53.50;;;;;;5010904;28;20012;-63
2021/08/03 09:27:59;;;;;;;;;;;21.50;54.40;;;;;;4995073;28;20375;-63
2021/08/03 09:30:27;;;;;;;;;;;21.60;54.50;;;;;;5010498;28;19952;-63
2021/08/03 09:32:53;;;;;;;;;;;21.90;55.20;;;;;;4995459;28;19917;-61
2021/08/03 09:35:20;;;;;;;;;;;22.20;55.50;;;;;;4995859;28;20263;-62
2021/08/03 09:37:46;;;;;;;;;;;22.50;55.30;;;;;;4995566;28;19964;-62
2021/08/03 09:40:22;;;;;;;;;;;22.80;55.30;;;;;;5010380;28;19921;-63
2021/08/03 09:43:01;;;;;;;;;;;23.00;55.40;;;;;;4995712;28;20008;-62
2021/08/03 09:45:31;;;;;;;;;;;23.30;55.50;;;;;;4995250;28;19948;-62
2021/08/03 09:48:07;;;;;;;;;;;23.70;55.10;;;;;;4995370;28;19924;-61
2021/08/03 09:50:49;;;;;;;;;;;24.10;54.70;;;;;;5010137;28;20401;-61
2021/08/03 09:53:38;;;;;;;;;;;24.40;54.40;;;;;;4995454;28;20048;-61
2021/08/03 09:56:04;;;;;;;;;;;24.80;54.00;;;;;;4972590;28;19922;-61
2021/08/03 09:58:31;;;;;;;;;;;25.10;53.50;;;;;;4975653;28;20293;-61
2021/08/03 10:00:57;;;;;;;;;;;25.50;53.90;;;;;;4975380;28;19925;-61
2021/08/03 10:03:24;;;;;;;;;;;25.90;53.80;;;;;;4974572;28;19922;-62
2021/08/03 10:05:50;;;;;;;;;;;26.30;52.60;;;;;;4990860;28;19929;-61
2021/08/03 10:08:16;;;;;;;;;;;26.60;51.30;;;;;;4975105;28;20375;-62
2021/08/03 10:10:43;;;;;;;;;;;26.70;50.60;;;;;;4975785;28;19918;-62
2021/08/03 10:13:09;;;;;;;;;;;26.90;50.10;;;;;;4975408;28;20005;-63
2021/08/03 10:15:35;;;;;;;;;;;27.10;50.00;;;;;;4975655;28;20034;-61
2021/08/03 10:18:00;;;;;;;;;;;27.30;49.60;;;;;;4957984;28;19925;-61
2021/08/03 10:20:26;;;;;;;;;;;27.50;49.50;;;;;;4974990;28;20287;-62
2021/08/03 10:22:54;;;;;;;;;;;27.70;48.80;;;;;;4975389;28;20360;-62
2021/08/03 10:25:20;;;;;;;;;;;28.00;48.30;;;;;;4975486;28;19929;-62
2021/08/03 10:27:46;;;;;;;;;;;28.40;47.90;;;;;;4974675;28;20012;-62
2021/08/03 10:30:26;;;;;;;;;;;29.10;47.80;;;;;;4975326;28;19922;-62
2021/08/03 10:32:53;;;;;;;;;;;29.70;46.50;;;;;;4993823;28;19976;-62
2021/08/03 10:35:20;;;;;;;;;;;31.60;47.40;;;;;;4994761;28;20001;-62
2021/08/03 10:37:58;;;;;;;;;;;34.30;46.70;;;;;;4993946;28;19924;-63
2021/08/03 10:40:42;;;;;;;;;;;37.60;44.70;;;;;;4994586;28;20278;-63
2021/08/03 10:43:13;;;;;;;;;;;40.50;41.00;;;;;;4994311;28;20567;-61
2021/08/03 10:45:39;;;;;;;;;;;42.50;37.20;;;;;;4994556;28;19924;-61
2021/08/03 10:48:04;;;;;;;;;;;43.70;34.20;;;;;;4993628;28;19918;-61
2021/08/03 10:50:32;;;;;;;;;;;44.40;32.50;;;;;;4994254;28;19922;-61
2021/08/03 10:52:59;;;;;;;;;;;44.80;30.90;;;;;;4994399;28;19920;-62
2021/08/03 10:55:30;;;;;;;;;;;44.90;29.90;;;;;;4993959;28;20290;-61
2021/08/03 10:58:12;;;;;;;;;;;44.50;28.80;;;;;;4994035;28;20005;-61
2021/08/03 11:00:44;;;;;;;;;;;44.00;28.50;;;;;;4993802;28;20264;-61
2021/08/03 11:03:28;;;;;;;;;;;43.60;28.00;;;;;;4994228;28;20125;-61
2021/08/03 11:05:54;;;;;;;;;;;42.90;27.60;;;;;;4993871;28;20059;-61
2021/08/03 11:08:28;;;;;;;;;;;40.50;26.60;;;;;;4993651;28;20008;-63
2021/08/03 11:11:06;;;;;;;;;;;38.60;27.50;;;;;;4993709;28;20397;-63
2021/08/03 11:13:35;;;;;;;;;;;36.50;28.40;;;;;;4992776;28;20009;-62
2021/08/03 11:16:00;;;;;;;;;;;34.50;28.20;;;;;;4993407;28;19917;-62
2021/08/03 11:18:38;;;;;;;;;;;32.70;29.10;;;;;;4993764;28;20267;-62
2021/08/03 11:21:04;;;;;;;;;;;31.30;29.80;;;;;;4993569;28;19925;-62
2021/08/03 11:23:48;;;;;;;;;;;30.20;30.90;;;;;;4993784;28;20302;-62
2021/08/03 11:26:19;;;;;;;;;;;29.40;32.20;;;;;;4993449;28;19953;-63
2021/08/03 11:28:55;;;;;;;;;;;29.00;34.00;;;;;;4993480;28;19918;-62
2021/08/03 11:31:20;;;;;;;;;;;30.10;36.20;;;;;;4992204;28;19960;-63
2021/08/03 11:33:46;;;;;;;;;;;31.70;35.70;;;;;;4993561;28;20386;-62
2021/08/03 11:36:11;;;;;;;;;;;32.60;34.30;;;;;;4993637;28;19924;-62
2021/08/03 11:38:37;;;;;;;;;;;32.00;32.20;;;;;;4992974;28;19925;-62
2021/08/03 11:41:02;;;;;;;;;;;31.00;32.60;;;;;;4993530;28;19990;-62
2021/08/03 11:43:28;;;;;;;;;;;30.20;33.00;;;;;;4990630;28;19922;-62
2021/08/03 11:45:53;;;;;;;;;;;29.10;33.60;;;;;;4993429;28;19917;-62
2021/08/03 11:48:25;;;;;;;;;;;28.10;34.60;;;;;;4993029;28;20378;-62
2021/08/03 11:50:51;;;;;;;;;;;27.30;36.00;;;;;;4991565;28;20024;-62
2021/08/03 11:53:17;;;;;;;;;;;26.70;37.50;;;;;;4993211;28;20040;-61
2021/08/03 11:55:44;;;;;;;;;;;26.50;38.30;;;;;;4992967;28;19918;-61
2021/08/03 11:58:12;;;;;;;;;;;26.20;38.90;;;;;;4992793;28;19918;-61
2021/08/03 12:00:38;;;;;;;;;;;26.00;39.50;;;;;;4993067;28;20374;-61
2021/08/03 12:03:04;;;;;;;;;;;25.90;40.00;;;;;;4992607;28;19922;-61
2021/08/03 12:05:31;;;;;;;;;;;25.90;40.80;;;;;;4993080;28;19918;-61
2021/08/03 12:07:58;;;;;;;;;;;26.60;42.90;;;;;;4992138;28;19917;-65
2021/08/03 12:10:25;;;;;;;;;;;27.70;42.00;;;;;;4992794;28;19922;-61
2021/08/03 12:12:51;;;;;;;;;;;28.40;41.10;;;;;;4992801;28;19993;-61
2021/08/03 12:15:19;;;;;;;;;;;28.60;39.90;;;;;;4992360;28;20024;-62
2021/08/03 12:17:45;;;;;;;;;;;28.40;39.00;;;;;;4991121;28;19945;-61
2021/08/03 12:20:29;;;;;;;;;;;27.90;38.80;;;;;;4992922;28;19918;-62
2021/08/03 12:23:06;;;;;;;;;;;27.40;38.90;;;;;;4992258;28;19918;-61
2021/08/03 12:25:38;;;;;;;;;;;26.80;39.40;;;;;;4992479;28;20013;-61
2021/08/03 12:28:04;;;;;;;;;;;26.30;40.20;;;;;;4991829;28;19922;-61
2021/08/03 12:30:36;;;;;;;;;;;26.10;41.30;;;;;;4992676;28;19917;-61
2021/08/03 12:33:03;;;;;;;;;;;26.40;42.40;;;;;;4992249;28;19989;-62
2021/08/03 12:35:28;;;;;;;;;;;26.60;41.70;;;;;;4992421;28;20008;-61
2021/08/03 12:38:13;;;;;;;;;;;26.50;41.10;;;;;;5007257;28;19918;-62
2021/08/03 12:40:39;;;;;;;;;;;26.20;41.40;;;;;;4991995;28;20443;-62
2021/08/03 12:43:05;;;;;;;;;;;25.90;41.90;;;;;;4992244;28;20258;-61
2021/08/03 12:45:30;;;;;;;;;;;25.80;42.30;;;;;;4991844;28;19925;-61
2021/08/03 12:47:57;;;;;;;;;;;25.70;42.80;;;;;;5006987;28;19945;-61
2021/08/03 12:50:23;;;;;;;;;;;25.60;43.20;;;;;;5015994;23;19921;-64
2021/08/03 12:52:55;;;;;;;;;;;25.60;43.50;;;;;;4991850;28;19924;-64
2021/08/03 12:55:30;;;;;;;;;;;25.50;43.70;;;;;;4992080;28;19937;-65
2021/08/03 12:57:57;;;;;;;;;;;25.30;44.00;;;;;;4991649;28;20501;-64
2021/08/03 13:00:38;;;;;;;;;;;25.10;44.20;;;;;;4990212;28;20386;-64
2021/08/03 13:03:05;;;;;;;;;;;25.00;44.60;;;;;;4972275;28;19925;-64
2021/08/03 13:05:32;;;;;;;;;;;24.70;45.10;;;;;;4986272;28;21502;-63
2021/08/03 13:07:58;;;;;;;;;;;24.50;45.50;;;;;;4972560;28;20334;-63
2021/08/03 13:10:23;;;;;;;;;;;24.20;46.10;;;;;;4986936;28;20475;-63
2021/08/03 13:12:49;;;;;;;;;;;24.00;46.20;;;;;;4972735;28;19918;-63
2021/08/03 13:15:15;;;;;;;;;;;23.70;46.90;;;;;;4972292;28;20322;-62
2021/08/03 13:17:40;;;;;;;;;;;23.50;47.20;;;;;;4972241;28;20004;-62
2021/08/03 13:20:07;;;;;;;;;;;23.30;47.90;;;;;;4972440;28;20006;-63
2021/08/03 13:22:33;;;;;;;;;;;23.10;48.50;;;;;;4971926;28;20294;-62
2021/08/03 13:24:59;;;;;;;;;;;23.00;49.00;;;;;;4987295;28;19936;-62
2021/08/03 13:27:25;;;;;;;;;;;23.00;49.00;;;;;;4972167;28;20005;-62
2021/08/03 13:29:50;;;;;;;;;;;23.00;49.10;;;;;;4972029;28;19918;-62
2021/08/03 13:32:16;;;;;;;;;;;22.90;49.30;;;;;;4972330;28;19934;-62
2021/08/03 13:34:44;;;;;;;;;;;22.90;49.70;;;;;;4986533;28;19919;-61
2021/08/03 13:37:10;;;;;;;;;;;23.00;50.30;;;;;;4972301;28;19925;-61
2021/08/03 13:39:36;;;;;;;;;;;23.10;50.70;;;;;;4987191;28;20406;-61
2021/08/03 13:42:01;;;;;;;;;;;23.20;50.80;;;;;;4971927;28;19926;-61
2021/08/03 13:44:27;;;;;;;;;;;23.20;50.80;;;;;;4972371;28;19922;-61
2021/08/03 13:46:52;;;;;;;;;;;23.10;50.60;;;;;;4971783;28;19925;-62
2021/08/03 13:49:18;;;;;;;;;;;23.10;51.10;;;;;;4972539;28;19922;-62
2021/08/03 13:51:44;;;;;;;;;;;23.20;51.80;;;;;;4972070;28;19929;-62
2021/08/03 13:54:09;;;;;;;;;;;23.30;52.20;;;;;;4986926;28;19963;-62
2021/08/03 13:56:35;;;;;;;;;;;23.30;52.50;;;;;;4972244;28;20401;-62
2021/08/03 13:59:02;;;;;;;;;;;23.30;52.80;;;;;;4972229;28;20347;-62
2021/08/03 14:01:28;;;;;;;;;;;23.20;53.20;;;;;;4971720;28;20049;-62
2021/08/03 14:03:54;;;;;;;;;;;23.20;53.30;;;;;;4972089;28;20008;-62
2021/08/03 14:06:20;;;;;;;;;;;23.10;53.40;;;;;;4987161;28;19918;-62
2021/08/03 14:08:46;;;;;;;;;;;23.00;53.40;;;;;;4990434;28;19925;-62
2021/08/03 14:11:12;;;;;;;;;;;22.90;53.40;;;;;;4975632;28;19918;-62
2021/08/03 14:13:38;;;;;;;;;;;22.80;53.50;;;;;;4975286;28;19946;-62
2021/08/03 14:16:06;;;;;;;;;;;22.70;53.40;;;;;;4990888;28;19938;-62
2021/08/03 14:18:32;;;;;;;;;;;22.70;53.30;;;;;;4975317;28;19948;-62
2021/08/03 14:20:58;;;;;;;;;;;22.70;53.50;;;;;;4990119;28;20294;-62